Time;durP1;ratioP1;P1;durP2;ratioP2;P2;SDS_P1;SDS_P2;PMS_P1;PMS_P2;Temp;Humidity;BMP_temperature;BMP_pressure;BME280_temperature;BME280_humidity;BME280_pressure;Samples;Min_cycle;Max_cycle;Signal;HPM_P1;HPM_P2
2023/04/21 00:00:07;;;;;;;37.40;18.00;;;;;;;;;;107050;1275;25316;-76
2023/04/21 00:02:54;;;;;;;41.70;19.00;;;;;;;;;;107037;1275;23890;-81
2023/04/21 00:05:20;;;;;;;35.80;18.20;;;;;;;;;;107080;1275;25471;-81
2023/04/21 00:07:47;;;;;;;40.40;19.80;;;;;;;;;;107100;1257;25344;-79
2023/04/21 00:10:14;;;;;;;37.70;18.10;;;;;;;;;;107082;1275;25315;-81
2023/04/21 00:12:41;;;;;;;40.40;17.80;;;;;;;;;;107038;1275;22520;-78
2023/04/21 00:15:08;;;;;;;36.60;17.10;;;;;;;;;;107016;1275;25343;-77
2023/04/21 00:17:35;;;;;;;35.10;17.80;;;;;;;;;;107026;1257;22526;-82
2023/04/21 00:20:03;;;;;;;36.00;17.70;;;;;;;;;;107088;1275;24365;-84
2023/04/21 00:22:30;;;;;;;45.40;20.50;;;;;;;;;;107043;1275;22923;-79
2023/04/21 00:24:57;;;;;;;39.00;18.00;;;;;;;;;;106887;1275;24193;-81
2023/04/21 00:27:27;;;;;;;38.20;19.70;;;;;;;;;;107017;1275;22526;-80
2023/04/21 00:29:57;;;;;;;38.90;19.10;;;;;;;;;;106922;1275;25946;-81
2023/04/21 00:32:26;;;;;;;37.30;18.60;;;;;;;;;;107031;1275;25244;-82
2023/04/21 00:34:53;;;;;;;32.60;14.40;;;;;;;;;;107006;1275;22639;-81
2023/04/21 00:37:20;;;;;;;30.80;14.90;;;;;;;;;;106893;1257;22580;-80
2023/04/21 00:39:47;;;;;;;34.30;15.90;;;;;;;;;;106919;1275;25224;-81
2023/04/21 00:42:14;;;;;;;36.30;16.10;;;;;;;;;;107049;1275;25518;-78
2023/04/21 00:44:41;;;;;;;31.80;15.70;;;;;;;;;;107002;1275;22636;-76
2023/04/21 00:47:08;;;;;;;39.90;20.20;;;;;;;;;;107059;1275;25406;-80
2023/04/21 00:49:34;;;;;;;35.30;18.50;;;;;;;;;;107179;1256;22522;-81
2023/04/21 00:52:03;;;;;;;33.20;17.30;;;;;;;;;;107025;1275;24384;-79
2023/04/21 00:54:31;;;;;;;31.10;15.90;;;;;;;;;;107048;1275;22523;-79
2023/04/21 00:56:57;;;;;;;37.00;17.00;;;;;;;;;;107092;1275;25329;-82
2023/04/21 00:59:24;;;;;;;32.80;15.80;;;;;;;;;;106904;1259;22852;-84
2023/04/21 01:01:51;;;;;;;32.30;15.20;;;;;;;;;;107080;1275;22528;-78
2023/04/21 01:04:18;;;;;;;34.70;15.20;;;;;;;;;;107069;1275;25354;-82
2023/04/21 01:06:45;;;;;;;32.80;15.70;;;;;;;;;;107008;1275;22501;-82
2023/04/21 01:09:12;;;;;;;32.10;17.00;;;;;;;;;;107015;1259;22521;-79
2023/04/21 01:11:39;;;;;;;34.10;16.70;;;;;;;;;;106920;1275;22763;-77
2023/04/21 01:14:07;;;;;;;40.40;19.00;;;;;;;;;;107087;1275;24171;-84
2023/04/21 01:16:34;;;;;;;35.40;19.30;;;;;;;;;;107072;1275;22483;-81
2023/04/21 01:19:01;;;;;;;36.50;17.00;;;;;;;;;;106955;1257;25268;-77
2023/04/21 01:21:27;;;;;;;34.90;17.50;;;;;;;;;;106892;1275;24234;-83
2023/04/21 01:23:54;;;;;;;36.00;18.60;;;;;;;;;;106911;1275;25214;-77
2023/04/21 01:26:24;;;;;;;39.90;17.00;;;;;;;;;;107017;1275;25315;-78
2023/04/21 01:28:55;;;;;;;30.30;15.80;;;;;;;;;;107169;1256;23263;-78
2023/04/21 01:31:23;;;;;;;33.90;17.40;;;;;;;;;;106979;1275;22532;-85
2023/04/21 01:33:50;;;;;;;32.00;17.10;;;;;;;;;;107217;1275;22674;-81
2023/04/21 01:36:17;;;;;;;42.30;19.30;;;;;;;;;;106871;1275;22582;-83
2023/04/21 01:38:47;;;;;;;39.10;19.90;;;;;;;;;;107037;1275;22583;-81
2023/04/21 01:41:14;;;;;;;35.60;17.40;;;;;;;;;;106988;1275;23384;-80
2023/04/21 01:43:41;;;;;;;28.60;15.20;;;;;;;;;;107043;1275;23866;-78
2023/04/21 01:46:11;;;;;;;34.20;17.70;;;;;;;;;;106974;1275;24260;-83
2023/04/21 01:48:38;;;;;;;33.40;16.00;;;;;;;;;;106899;1275;24345;-77
2023/04/21 01:51:06;;;;;;;35.20;17.00;;;;;;;;;;107043;1259;22510;-82
2023/04/21 01:53:32;;;;;;;33.50;16.30;;;;;;;;;;107015;1275;22629;-78
2023/04/21 01:56:12;;;;;;;36.50;17.00;;;;;;;;;;106998;1275;26582;-82
2023/04/21 01:58:39;;;;;;;34.10;16.80;;;;;;;;;;107069;1275;25281;-82
2023/04/21 02:01:11;;;;;;;31.40;17.10;;;;;;;;;;106879;1260;26473;-82
2023/04/21 02:03:40;;;;;;;35.20;17.40;;;;;;;;;;107039;1275;24263;-91
2023/04/21 02:06:08;;;;;;;33.60;16.90;;;;;;;;;;107037;1275;21796;-82
2023/04/21 02:08:39;;;;;;;32.50;16.70;;;;;;;;;;107010;1275;24237;-84
2023/04/21 02:11:07;;;;;;;35.30;15.70;;;;;;;;;;106903;1267;25020;-79
2023/04/21 02:13:34;;;;;;;32.80;16.70;;;;;;;;;;107026;1275;24077;-76
2023/04/21 02:16:01;;;;;;;40.20;17.70;;;;;;;;;;106923;1275;23861;-77
2023/04/21 02:18:29;;;;;;;33.00;15.80;;;;;;;;;;106832;1275;24976;-78
2023/04/21 02:20:55;;;;;;;39.20;17.00;;;;;;;;;;106901;1270;22527;-80
2023/04/21 02:23:42;;;;;;;30.30;14.20;;;;;;;;;;107021;1275;22523;-81
2023/04/21 02:26:17;;;;;;;30.30;15.40;;;;;;;;;;107021;1275;25575;-82
2023/04/21 02:28:44;;;;;;;35.40;16.60;;;;;;;;;;107107;1275;23861;-79
2023/04/21 02:31:11;;;;;;;34.90;18.00;;;;;;;;;;106890;1259;25260;-78
2023/04/21 02:33:38;;;;;;;31.70;15.40;;;;;;;;;;107005;1275;22562;-82
2023/04/21 02:36:05;;;;;;;30.50;16.00;;;;;;;;;;107056;1275;25233;-79
2023/04/21 02:38:31;;;;;;;29.50;14.10;;;;;;;;;;106953;1275;22530;-77
2023/04/21 02:40:58;;;;;;;26.90;14.20;;;;;;;;;;106988;1257;24224;-81
2023/04/21 02:43:28;;;;;;;30.60;14.20;;;;;;;;;;106995;1275;22550;-79
2023/04/21 02:45:58;;;;;;;33.60;15.20;;;;;;;;;;107049;1275;22543;-82
2023/04/21 02:48:29;;;;;;;34.30;16.40;;;;;;;;;;106920;1275;22550;-81
2023/04/21 02:51:03;;;;;;;35.10;16.10;;;;;;;;;;104776;1275;2963590;-78
2023/04/21 02:53:29;;;;;;;35.20;17.40;;;;;;;;;;106936;1275;22531;-78
2023/04/21 02:55:56;;;;;;;34.70;15.90;;;;;;;;;;107114;1258;22029;-78
2023/04/21 02:58:24;;;;;;;36.30;17.30;;;;;;;;;;107161;1275;24204;-80
2023/04/21 03:00:51;;;;;;;30.10;15.00;;;;;;;;;;106932;1260;22531;-82
2023/04/21 03:03:38;;;;;;;34.70;15.50;;;;;;;;;;107046;1275;24284;-82
2023/04/21 03:06:16;;;;;;;31.60;13.50;;;;;;;;;;106924;1272;22528;-82
2023/04/21 03:08:51;;;;;;;35.10;14.30;;;;;;;;;;107457;1275;22555;-77
2023/04/21 03:11:46;;;;;;;34.60;15.10;;;;;;;;;;106835;1260;22525;-81
2023/04/21 03:14:12;;;;;;;37.50;16.60;;;;;;;;;;106881;1275;22636;-79
2023/04/21 03:16:39;;;;;;;42.90;17.90;;;;;;;;;;107096;1257;24190;-79
2023/04/21 03:19:06;;;;;;;52.70;18.20;;;;;;;;;;107066;1275;22581;-79
2023/04/21 03:21:35;;;;;;;41.70;17.10;;;;;;;;;;107013;1257;24192;-84
2023/04/21 03:24:02;;;;;;;43.00;18.40;;;;;;;;;;106901;1275;25254;-79
2023/04/21 03:26:29;;;;;;;46.10;18.60;;;;;;;;;;107050;1275;26224;-79
2023/04/21 03:28:58;;;;;;;99.40;19.90;;;;;;;;;;107088;1275;24215;-82
2023/04/21 03:31:27;;;;;;;129.40;23.00;;;;;;;;;;107334;1262;25446;-81
2023/04/21 03:33:54;;;;;;;93.10;19.90;;;;;;;;;;107195;1275;23864;-79
2023/04/21 03:36:21;;;;;;;104.40;21.70;;;;;;;;;;107157;1275;22511;-82
2023/04/21 03:38:48;;;;;;;76.70;21.20;;;;;;;;;;107031;1272;22516;-78
2023/04/21 03:41:15;;;;;;;52.50;20.20;;;;;;;;;;107252;1264;22524;-78
2023/04/21 03:43:41;;;;;;;48.10;19.70;;;;;;;;;;106770;1275;24196;-79
2023/04/21 03:46:16;;;;;;;70.60;21.00;;;;;;;;;;106888;1275;22690;-81
2023/04/21 03:48:44;;;;;;;62.40;20.30;;;;;;;;;;107179;1275;22533;-77
2023/04/21 03:51:11;;;;;;;53.10;19.60;;;;;;;;;;106892;1257;25224;-79
2023/04/21 03:53:40;;;;;;;72.50;19.90;;;;;;;;;;106877;1275;25278;-88
2023/04/21 03:56:07;;;;;;;55.00;20.00;;;;;;;;;;106929;1275;24321;-82
2023/04/21 03:58:34;;;;;;;55.20;19.20;;;;;;;;;;106890;1273;22537;-80
2023/04/21 04:01:01;;;;;;;47.00;20.50;;;;;;;;;;106949;1275;22620;-83
2023/04/21 04:03:28;;;;;;;44.40;21.70;;;;;;;;;;106924;1275;25217;-79
2023/04/21 04:05:55;;;;;;;46.80;23.30;;;;;;;;;;107096;1254;25452;-81
2023/04/21 04:08:21;;;;;;;49.20;21.30;;;;;;;;;;107093;1275;22525;-78
2023/04/21 04:10:48;;;;;;;50.70;21.90;;;;;;;;;;107052;1275;22490;-78
2023/04/21 04:13:16;;;;;;;50.80;21.00;;;;;;;;;;106870;1267;22750;-80
2023/04/21 04:15:42;;;;;;;45.60;21.70;;;;;;;;;;107095;1275;22543;-78
2023/04/21 04:18:09;;;;;;;45.30;19.40;;;;;;;;;;107143;1275;25682;-80
2023/04/21 04:20:36;;;;;;;38.00;18.60;;;;;;;;;;107026;1275;22532;-82
2023/04/21 04:23:03;;;;;;;47.20;19.50;;;;;;;;;;107007;1266;24235;-79
2023/04/21 04:25:30;;;;;;;45.00;22.10;;;;;;;;;;107042;1274;24172;-77
2023/04/21 04:27:57;;;;;;;42.40;20.30;;;;;;;;;;106900;1275;22531;-82
2023/04/21 04:30:27;;;;;;;41.70;20.50;;;;;;;;;;107079;1275;25278;-80
2023/04/21 04:32:56;;;;;;;42.80;20.30;;;;;;;;;;107031;1266;24276;-77
2023/04/21 04:35:23;;;;;;;41.10;19.90;;;;;;;;;;107138;1275;25297;-78
2023/04/21 04:37:50;;;;;;;46.90;21.00;;;;;;;;;;107024;1275;24337;-82
2023/04/21 04:40:16;;;;;;;39.30;18.90;;;;;;;;;;106929;1275;22527;-80
2023/04/21 04:42:45;;;;;;;41.90;19.50;;;;;;;;;;107005;1258;24230;-79
2023/04/21 04:45:12;;;;;;;42.80;17.70;;;;;;;;;;106932;1275;22953;-84
2023/04/21 04:47:39;;;;;;;33.10;17.20;;;;;;;;;;106926;1275;22528;-77
2023/04/21 04:50:06;;;;;;;36.90;18.60;;;;;;;;;;106915;1275;22552;-83
2023/04/21 04:52:33;;;;;;;41.00;19.60;;;;;;;;;;106913;1262;22514;-78
2023/04/21 04:55:02;;;;;;;41.70;20.50;;;;;;;;;;107109;1275;24215;-81
2023/04/21 04:57:30;;;;;;;41.40;22.80;;;;;;;;;;106959;1275;22627;-82
2023/04/21 04:59:56;;;;;;;39.50;21.70;;;;;;;;;;106991;1275;22491;-83
2023/04/21 05:02:23;;;;;;;43.00;21.80;;;;;;;;;;107019;1275;23892;-76
2023/04/21 05:04:50;;;;;;;41.20;21.00;;;;;;;;;;107078;1256;22657;-77
2023/04/21 05:07:17;;;;;;;37.20;21.40;;;;;;;;;;107185;1275;22510;-77
2023/04/21 05:09:44;;;;;;;38.30;19.90;;;;;;;;;;106972;1275;24048;-78
2023/04/21 05:12:10;;;;;;;40.00;19.60;;;;;;;;;;107041;1275;25346;-82
2023/04/21 05:14:39;;;;;;;41.00;19.90;;;;;;;;;;106852;1275;22524;-84
2023/04/21 05:17:06;;;;;;;39.60;20.40;;;;;;;;;;107109;1275;23936;-80
2023/04/21 05:19:36;;;;;;;54.70;21.90;;;;;;;;;;106950;1275;25344;-78
2023/04/21 05:22:05;;;;;;;54.20;20.60;;;;;;;;;;107140;1275;22535;-77
2023/04/21 05:24:32;;;;;;;51.70;21.80;;;;;;;;;;107129;1257;24815;-81
2023/04/21 05:27:02;;;;;;;80.70;24.60;;;;;;;;;;106908;1275;25549;-77
2023/04/21 05:29:29;;;;;;;157.90;32.40;;;;;;;;;;107152;1275;25404;-78
2023/04/21 05:31:56;;;;;;;208.40;36.70;;;;;;;;;;107011;1275;22964;-85
2023/04/21 05:34:23;;;;;;;127.30;31.20;;;;;;;;;;107015;1258;25291;-79
2023/04/21 05:36:51;;;;;;;108.30;28.70;;;;;;;;;;106895;1275;22956;-77
2023/04/21 05:39:17;;;;;;;104.60;27.50;;;;;;;;;;106988;1275;25526;-78
2023/04/21 05:41:44;;;;;;;114.70;28.50;;;;;;;;;;106893;1275;22573;-78
2023/04/21 05:44:11;;;;;;;107.40;28.90;;;;;;;;;;107551;1257;25242;-80
2023/04/21 05:46:37;;;;;;;85.00;29.40;;;;;;;;;;107021;1275;22523;-81
2023/04/21 05:49:04;;;;;;;64.60;25.20;;;;;;;;;;107012;1275;22479;-80
2023/04/21 05:51:31;;;;;;;55.40;24.10;;;;;;;;;;107024;1275;22586;-77
2023/04/21 05:53:58;;;;;;;40.90;22.70;;;;;;;;;;107002;1275;24134;-82
2023/04/21 05:56:25;;;;;;;42.50;22.40;;;;;;;;;;107104;1257;25329;-77
2023/04/21 05:58:54;;;;;;;40.30;19.80;;;;;;;;;;106930;1275;25319;-76
2023/04/21 06:01:21;;;;;;;37.70;17.40;;;;;;;;;;107087;1252;22620;-82
2023/04/21 06:03:48;;;;;;;35.50;17.30;;;;;;;;;;106825;1275;25290;-77
2023/04/21 06:06:18;;;;;;;37.50;17.60;;;;;;;;;;106862;1259;23865;-77
2023/04/21 06:08:45;;;;;;;33.50;16.70;;;;;;;;;;107107;1275;22638;-80
2023/04/21 06:11:11;;;;;;;35.80;17.20;;;;;;;;;;107089;1275;22524;-78
2023/04/21 06:13:38;;;;;;;33.40;16.90;;;;;;;;;;106905;1275;24214;-87
2023/04/21 06:16:07;;;;;;;31.10;15.50;;;;;;;;;;107018;1262;22524;-79
2023/04/21 06:18:34;;;;;;;36.00;16.50;;;;;;;;;;107081;1275;22572;-77
2023/04/21 06:21:46;;;;;;;28.90;16.90;;;;;;;;;;107104;1273;25246;-81
2023/04/21 06:23:47;;;;;;;31.80;15.60;;;;;;;;;;107037;1275;22668;-79
2023/04/21 06:26:17;;;;;;;32.20;15.30;;;;;;;;;;107134;1256;23109;-81
2023/04/21 06:28:46;;;;;;;31.80;15.90;;;;;;;;;;107123;1275;25289;-85
2023/04/21 06:31:14;;;;;;;31.70;15.10;;;;;;;;;;107058;1275;22780;-79
2023/04/21 06:34:25;;;;;;;29.60;15.00;;;;;;;;;;106992;1275;22508;-77
2023/04/21 06:36:52;;;;;;;35.20;17.00;;;;;;;;;;106976;1275;24234;-84
2023/04/21 06:39:19;;;;;;;36.80;17.60;;;;;;;;;;106998;1275;22484;-81
2023/04/21 06:41:48;;;;;;;36.40;16.50;;;;;;;;;;106875;1275;22527;-79
2023/04/21 06:44:17;;;;;;;32.30;14.90;;;;;;;;;;107125;1275;25361;-79
2023/04/21 06:46:44;;;;;;;33.30;15.20;;;;;;;;;;106984;1257;22756;-78
2023/04/21 06:49:11;;;;;;;27.20;14.60;;;;;;;;;;107152;1275;24361;-84
2023/04/21 06:51:38;;;;;;;26.10;14.30;;;;;;;;;;106896;1275;22758;-88
2023/04/21 06:54:05;;;;;;;27.50;14.00;;;;;;;;;;107033;1275;22524;-77
2023/04/21 06:57:03;;;;;;;26.80;13.10;;;;;;;;;;106883;1260;25307;-82
2023/04/21 06:59:33;;;;;;;37.20;14.80;;;;;;;;;;107091;1275;22528;-77
2023/04/21 07:02:03;;;;;;;33.80;14.70;;;;;;;;;;107004;1275;22517;-84
2023/04/21 07:04:31;;;;;;;27.50;14.70;;;;;;;;;;106988;1275;22763;-76
2023/04/21 07:07:00;;;;;;;28.20;13.50;;;;;;;;;;107054;1258;25284;-82
2023/04/21 07:09:32;;;;;;;27.00;14.00;;;;;;;;;;106985;1275;24190;-78
2023/04/21 07:12:08;;;;;;;26.70;13.70;;;;;;;;;;107049;1275;24243;-85
2023/04/21 07:14:37;;;;;;;29.00;12.90;;;;;;;;;;107054;1275;22588;-78
2023/04/21 07:17:04;;;;;;;25.00;13.10;;;;;;;;;;107035;1258;24225;-77
2023/04/21 07:19:31;;;;;;;28.10;12.70;;;;;;;;;;107158;1275;25289;-78
2023/04/21 07:21:58;;;;;;;29.60;13.20;;;;;;;;;;107133;1275;22645;-81
2023/04/21 07:24:25;;;;;;;23.30;13.20;;;;;;;;;;107044;1275;22583;-84
2023/04/21 07:26:52;;;;;;;25.10;12.80;;;;;;;;;;106895;1264;22577;-84
2023/04/21 07:29:18;;;;;;;22.70;13.10;;;;;;;;;;106929;1275;25024;-84
2023/04/21 07:31:47;;;;;;;25.50;13.20;;;;;;;;;;106930;1275;22535;-78
2023/04/21 07:34:16;;;;;;;25.50;12.70;;;;;;;;;;107034;1275;22524;-84
2023/04/21 07:36:43;;;;;;;22.80;12.20;;;;;;;;;;107003;1272;25409;-78
2023/04/21 07:39:09;;;;;;;23.90;12.30;;;;;;;;;;106996;1262;24324;-84
2023/04/21 07:41:36;;;;;;;22.10;12.50;;;;;;;;;;106988;1267;23221;-81
2023/04/21 07:44:03;;;;;;;26.30;12.50;;;;;;;;;;107151;1275;24375;-82
2023/04/21 07:46:30;;;;;;;25.00;12.30;;;;;;;;;;107110;1254;22523;-86
2023/04/21 07:48:59;;;;;;;24.20;11.90;;;;;;;;;;107067;1256;22663;-85
2023/04/21 07:51:26;;;;;;;23.80;11.70;;;;;;;;;;107160;1275;25376;-78
2023/04/21 07:53:55;;;;;;;24.00;12.20;;;;;;;;;;107064;1275;25285;-83
2023/04/21 07:56:22;;;;;;;26.60;11.90;;;;;;;;;;107155;1254;22534;-83
2023/04/21 07:58:49;;;;;;;23.90;12.10;;;;;;;;;;106990;1257;22520;-81
2023/04/21 08:01:22;;;;;;;21.80;11.70;;;;;;;;;;107168;1275;23866;-78
2023/04/21 08:03:49;;;;;;;26.70;11.10;;;;;;;;;;107052;1275;22679;-78
2023/04/21 08:06:16;;;;;;;24.20;11.60;;;;;;;;;;106902;1275;22556;-77
2023/04/21 08:08:42;;;;;;;24.70;11.60;;;;;;;;;;107076;1267;22625;-84
2023/04/21 08:11:09;;;;;;;24.30;12.20;;;;;;;;;;107101;1275;22517;-82
2023/04/21 08:13:36;;;;;;;23.10;10.80;;;;;;;;;;107002;1275;22518;-77
2023/04/21 08:16:03;;;;;;;22.90;11.00;;;;;;;;;;106907;1275;25581;-85
2023/04/21 08:18:30;;;;;;;25.70;11.90;;;;;;;;;;106998;1256;22493;-81
2023/04/21 08:21:01;;;;;;;25.80;11.60;;;;;;;;;;107247;1275;22520;-81
2023/04/21 08:23:29;;;;;;;21.50;11.20;;;;;;;;;;106878;1275;24359;-80
2023/04/21 08:25:56;;;;;;;22.00;11.10;;;;;;;;;;107178;1275;22580;-81
2023/04/21 08:28:23;;;;;;;22.70;11.80;;;;;;;;;;107134;1275;25317;-78
2023/04/21 08:30:50;;;;;;;26.80;14.50;;;;;;;;;;107040;1275;24246;-80
2023/04/21 08:33:17;;;;;;;27.20;13.60;;;;;;;;;;107197;1275;22527;-78
2023/04/21 08:35:44;;;;;;;28.80;12.90;;;;;;;;;;107057;1275;22646;-81
2023/04/21 08:38:11;;;;;;;34.30;15.60;;;;;;;;;;106953;1253;22524;-83
2023/04/21 08:40:38;;;;;;;29.30;16.20;;;;;;;;;;107090;1275;24249;-79
2023/04/21 08:43:05;;;;;;;26.30;14.30;;;;;;;;;;107107;1274;22489;-88
2023/04/21 08:45:33;;;;;;;27.90;14.80;;;;;;;;;;107483;1275;22634;-82
2023/04/21 08:48:00;;;;;;;24.60;14.90;;;;;;;;;;107146;1275;22527;-80
2023/04/21 08:50:28;;;;;;;28.80;14.40;;;;;;;;;;106927;1257;22640;-79
2023/04/21 08:52:55;;;;;;;26.60;14.10;;;;;;;;;;107187;1275;22527;-82
2023/04/21 08:55:29;;;;;;;23.50;12.10;;;;;;;;;;107155;1275;25402;-83
2023/04/21 08:57:56;;;;;;;34.80;14.30;;;;;;;;;;107195;1275;22524;-83
2023/04/21 09:00:23;;;;;;;27.90;14.10;;;;;;;;;;107038;1257;24347;-83
2023/04/21 09:02:54;;;;;;;32.00;14.40;;;;;;;;;;107172;1275;24347;-79
2023/04/21 09:05:26;;;;;;;22.20;11.00;;;;;;;;;;107189;1275;24435;-84
2023/04/21 09:08:06;;;;;;;25.10;12.20;;;;;;;;;;107185;1275;25189;-84
2023/04/21 09:10:33;;;;;;;23.90;11.50;;;;;;;;;;107235;1256;22611;-79
2023/04/21 09:13:05;;;;;;;25.90;13.00;;;;;;;;;;107028;1275;22520;-77
2023/04/21 09:15:42;;;;;;;26.70;12.90;;;;;;;;;;106915;1273;22527;-86
2023/04/21 09:18:16;;;;;;;25.40;13.50;;;;;;;;;;107049;1275;22540;-79
2023/04/21 09:20:44;;;;;;;26.10;14.40;;;;;;;;;;107163;1267;25234;-84
2023/04/21 09:23:11;;;;;;;30.90;12.90;;;;;;;;;;107089;1275;22633;-85
2023/04/21 09:25:39;;;;;;;23.70;11.60;;;;;;;;;;107170;1275;22962;-79
2023/04/21 09:28:09;;;;;;;20.70;11.30;;;;;;;;;;107524;1275;22479;-76
2023/04/21 09:30:40;;;;;;;25.00;11.50;;;;;;;;;;107147;1256;22523;-84
2023/04/21 09:33:07;;;;;;;23.00;11.20;;;;;;;;;;107165;1275;25547;-81
2023/04/21 09:35:35;;;;;;;20.70;10.50;;;;;;;;;;107165;1275;22945;-80
2023/04/21 09:38:10;;;;;;;20.30;10.80;;;;;;;;;;107026;1275;22581;-80
2023/04/21 09:40:37;;;;;;;24.80;11.60;;;;;;;;;;106995;1275;22544;-81
2023/04/21 09:43:03;;;;;;;24.50;13.60;;;;;;;;;;107035;1275;22642;-77
2023/04/21 09:45:30;;;;;;;26.60;13.60;;;;;;;;;;107105;1275;24186;-83
2023/04/21 09:48:00;;;;;;;19.80;9.80;;;;;;;;;;107103;1275;24256;-78
2023/04/21 09:50:30;;;;;;;16.70;8.30;;;;;;;;;;107047;1253;22546;-81
2023/04/21 09:52:59;;;;;;;20.50;9.40;;;;;;;;;;106937;1275;22517;-77
2023/04/21 09:55:27;;;;;;;16.10;8.30;;;;;;;;;;106996;1253;22637;-86
2023/04/21 09:57:59;;;;;;;16.40;9.00;;;;;;;;;;106987;1275;22485;-82
2023/04/21 10:00:27;;;;;;;29.00;10.90;;;;;;;;;;106847;1258;25455;-79
2023/04/21 10:02:55;;;;;;;22.50;9.90;;;;;;;;;;107236;1275;25331;-82
2023/04/21 10:05:22;;;;;;;17.80;8.60;;;;;;;;;;107083;1275;25278;-79
2023/04/21 10:07:49;;;;;;;17.80;10.20;;;;;;;;;;107178;1275;24187;-76
2023/04/21 10:10:22;;;;;;;20.10;9.80;;;;;;;;;;107579;1256;22531;-79
2023/04/21 10:12:50;;;;;;;20.50;9.80;;;;;;;;;;107246;1275;22755;-78
2023/04/21 10:15:32;;;;;;;21.00;9.50;;;;;;;;;;106810;1275;22609;-81
2023/04/21 10:18:14;;;;;;;21.80;10.10;;;;;;;;;;106931;1275;24362;-79
2023/04/21 10:20:55;;;;;;;22.30;11.10;;;;;;;;;;107148;1256;23919;-83
2023/04/21 10:23:32;;;;;;;17.90;8.70;;;;;;;;;;107148;1275;25291;-80
2023/04/21 10:26:03;;;;;;;18.30;8.80;;;;;;;;;;107158;1275;22523;-82
2023/04/21 10:28:42;;;;;;;17.60;8.00;;;;;;;;;;106883;1275;22797;-81
2023/04/21 10:31:16;;;;;;;15.50;8.20;;;;;;;;;;107100;1275;25301;-78
2023/04/21 10:34:03;;;;;;;14.00;7.80;;;;;;;;;;106927;1275;22520;-77
2023/04/21 10:36:29;;;;;;;14.80;8.50;;;;;;;;;;107159;1275;22523;-78
2023/04/21 10:38:59;;;;;;;14.50;7.80;;;;;;;;;;107069;1275;22633;-81
2023/04/21 10:41:29;;;;;;;19.00;9.20;;;;;;;;;;106584;1261;23806;-76
2023/04/21 10:43:59;;;;;;;16.30;8.50;;;;;;;;;;107132;1275;24706;-79
2023/04/21 10:46:44;;;;;;;18.20;9.20;;;;;;;;;;106927;1275;22536;-78
2023/04/21 10:49:27;;;;;;;18.30;9.20;;;;;;;;;;107026;1264;22479;-79
2023/04/21 10:51:58;;;;;;;15.10;8.40;;;;;;;;;;106968;1258;25413;-80
2023/04/21 10:54:27;;;;;;;19.10;9.00;;;;;;;;;;107404;1272;25546;-80
2023/04/21 10:57:31;;;;;;;;;;;;;;;;;;;;;
2023/04/21 11:00:17;;;;;;;14.30;6.40;;;;;;;;;;106822;1276;27455;-81
2023/04/21 11:02:54;;;;;;;16.30;7.90;;;;;;;;;;106842;1260;22653;-81
2023/04/21 11:05:28;;;;;;;14.10;6.90;;;;;;;;;;106854;1276;22556;-81
2023/04/21 11:08:02;;;;;;;15.20;7.10;;;;;;;;;;106753;1276;25278;-75
2023/04/21 11:10:29;;;;;;;24.70;12.60;;;;;;;;;;106835;1276;24190;-78
2023/04/21 11:12:56;;;;;;;20.10;10.30;;;;;;;;;;106791;1258;25136;-77
2023/04/21 11:15:25;;;;;;;16.30;7.80;;;;;;;;;;106736;1276;25179;-79
2023/04/21 11:17:52;;;;;;;14.40;7.10;;;;;;;;;;106797;1273;23384;-78
2023/04/21 11:20:29;;;;;;;13.30;7.50;;;;;;;;;;106811;1276;22648;-79
2023/04/21 11:22:57;;;;;;;11.10;6.70;;;;;;;;;;106833;1276;22526;-80
2023/04/21 11:25:27;;;;;;;12.40;6.30;;;;;;;;;;106838;1276;22579;-77
2023/04/21 11:27:59;;;;;;;13.30;6.60;;;;;;;;;;106885;1276;22776;-78
2023/04/21 11:30:35;;;;;;;12.80;6.40;;;;;;;;;;106714;1272;25246;-80
2023/04/21 11:33:01;;;;;;;12.20;5.90;;;;;;;;;;106856;1252;22531;-77
2023/04/21 11:35:30;;;;;;;14.40;7.00;;;;;;;;;;107130;1273;22800;-75
2023/04/21 11:37:56;;;;;;;19.40;7.50;;;;;;;;;;107065;1273;24199;-78
2023/04/21 11:40:24;;;;;;;28.80;9.40;;;;;;;;;;106801;1276;25358;-78
2023/04/21 11:42:53;;;;;;;20.90;8.20;;;;;;;;;;106804;1259;23899;-79
2023/04/21 11:45:20;;;;;;;13.80;6.60;;;;;;;;;;106851;1276;25511;-77
2023/04/21 11:47:47;;;;;;;16.20;7.20;;;;;;;;;;106791;1276;24864;-78
2023/04/21 11:50:31;;;;;;;12.30;7.60;;;;;;;;;;106752;1276;24157;-77
2023/04/21 11:53:01;;;;;;;10.50;6.00;;;;;;;;;;106852;1259;25227;-77
2023/04/21 11:55:27;;;;;;;12.90;6.50;;;;;;;;;;106909;1269;26481;-77
2023/04/21 11:57:56;;;;;;;10.60;6.10;;;;;;;;;;106820;1269;22722;-77
2023/04/21 12:00:23;;;;;;;12.40;5.80;;;;;;;;;;106861;1269;22533;-76
2023/04/21 12:02:55;;;;;;;12.30;5.50;;;;;;;;;;106841;1259;25445;-77
2023/04/21 12:05:22;;;;;;;14.30;6.80;;;;;;;;;;106855;1269;25196;-79
2023/04/21 12:07:51;;;;;;;12.00;5.20;;;;;;;;;;106816;1272;24302;-76
2023/04/21 12:10:19;;;;;;;14.00;6.10;;;;;;;;;;106754;1271;22523;-79
2023/04/21 12:12:46;;;;;;;10.50;5.10;;;;;;;;;;106822;1270;24063;-78
2023/04/21 12:15:24;;;;;;;14.00;5.20;;;;;;;;;;106868;1263;22523;-79
2023/04/21 12:17:52;;;;;;;10.30;5.30;;;;;;;;;;106815;1272;25438;-78
2023/04/21 12:20:20;;;;;;;10.40;5.10;;;;;;;;;;107545;1275;22566;-78
2023/04/21 12:22:47;;;;;;;8.10;4.20;;;;;;;;;;106948;1259;24210;-77
2023/04/21 12:25:17;;;;;;;8.40;4.90;;;;;;;;;;107065;1276;23898;-80
2023/04/21 12:27:49;;;;;;;12.30;4.60;;;;;;;;;;106557;1275;22553;-77
2023/04/21 12:30:40;;;;;;;;;;;;;;;;;;;;;
2023/04/21 12:39:05;;;;;;;11.00;5.50;;;;;;;;;;103833;1295;545374;-80
2023/04/21 12:41:33;;;;;;;13.40;5.20;;;;;;;;;;106111;1288;22560;-77
2023/04/21 12:44:54;;;;;;;12.40;6.10;;;;;;;;;;107298;1283;22537;-78
2023/04/21 12:47:36;;;;;;;10.30;5.20;;;;;;;;;;106671;1283;24235;-83
2023/04/21 12:51:01;;;;;;;;;;;;;;;;;;;;;
2023/04/21 12:53:35;;;;;;;11.10;5.20;;;;;;;;;;102234;1290;5175638;-82
2023/04/21 12:56:03;;;;;;;9.40;5.20;;;;;;;;;;105913;1290;22553;-77
2023/04/21 12:58:30;;;;;;;11.60;5.60;;;;;;;;;;105969;1267;22658;-79
2023/04/21 13:00:56;;;;;;;12.60;5.70;;;;;;;;;;105939;1266;24217;-80
2023/04/21 13:03:23;;;;;;;9.50;4.90;;;;;;;;;;106498;1289;25409;-77
2023/04/21 13:05:50;;;;;;;10.60;4.80;;;;;;;;;;106150;1289;22533;-78
2023/04/21 13:08:17;;;;;;;11.30;5.40;;;;;;;;;;106030;1289;22567;-78
2023/04/21 13:10:44;;;;;;;9.20;4.90;;;;;;;;;;105864;1274;24435;-82
2023/04/21 13:13:11;;;;;;;10.00;5.90;;;;;;;;;;105844;1290;22513;-80
2023/04/21 13:15:38;;;;;;;10.40;5.30;;;;;;;;;;105888;1291;22536;-78
2023/04/21 13:18:05;;;;;;;11.40;5.90;;;;;;;;;;105847;1290;22549;-77
2023/04/21 13:20:31;;;;;;;10.40;5.70;;;;;;;;;;106037;1271;25394;-76
2023/04/21 13:22:58;;;;;;;14.50;5.80;;;;;;;;;;105950;1289;22938;-78
2023/04/21 13:25:25;;;;;;;14.00;7.20;;;;;;;;;;105963;1289;22537;-83
2023/04/21 13:27:51;;;;;;;14.20;5.70;;;;;;;;;;105982;1289;22562;-81
2023/04/21 13:30:18;;;;;;;12.60;5.80;;;;;;;;;;106549;1266;23889;-78
2023/04/21 13:32:45;;;;;;;11.40;5.50;;;;;;;;;;106442;1283;22551;-85
2023/04/21 13:35:11;;;;;;;10.40;5.10;;;;;;;;;;106451;1283;23122;-82
2023/04/21 13:37:38;;;;;;;12.40;5.80;;;;;;;;;;106394;1283;24266;-79
2023/04/21 13:40:06;;;;;;;11.30;5.70;;;;;;;;;;106465;1268;22537;-84
2023/04/21 13:42:34;;;;;;;11.60;6.00;;;;;;;;;;106486;1283;22634;-79
2023/04/21 13:45:03;;;;;;;15.50;7.50;;;;;;;;;;106468;1283;22531;-80
2023/04/21 13:47:31;;;;;;;14.10;6.80;;;;;;;;;;106635;1283;26598;-78
2023/04/21 13:49:58;;;;;;;14.20;7.10;;;;;;;;;;106786;1268;24205;-78
2023/04/21 13:52:25;;;;;;;12.00;6.10;;;;;;;;;;106607;1280;22524;-83
2023/04/21 13:54:53;;;;;;;12.50;5.30;;;;;;;;;;106751;1280;22703;-82
2023/04/21 13:57:20;;;;;;;17.60;9.50;;;;;;;;;;106606;1280;22609;-84
2023/04/21 13:59:47;;;;;;;11.40;6.80;;;;;;;;;;106593;1262;22649;-78
2023/04/21 14:02:13;;;;;;;14.90;6.20;;;;;;;;;;106556;1280;24240;-78
2023/04/21 14:04:40;;;;;;;15.20;6.50;;;;;;;;;;106602;1280;22635;-81
2023/04/21 14:07:17;;;;;;;;;;;;;;;;;;;;;
2023/04/21 14:09:45;;;;;;;12.00;5.30;;;;;;;;;;106604;1256;22523;-82
2023/04/21 14:12:14;;;;;;;11.10;5.40;;;;;;;;;;106433;1280;22539;-81
2023/04/21 14:14:41;;;;;;;16.30;6.80;;;;;;;;;;106481;1280;22534;-81
2023/04/21 14:17:07;;;;;;;14.30;5.60;;;;;;;;;;106748;1280;22531;-81
2023/04/21 14:19:34;;;;;;;17.50;6.90;;;;;;;;;;106376;1280;22528;-79
2023/04/21 14:22:01;;;;;;;14.50;6.10;;;;;;;;;;106499;1280;22615;-83
2023/04/21 14:24:29;;;;;;;13.40;5.50;;;;;;;;;;106613;1280;25274;-78
2023/04/21 14:26:58;;;;;;;11.50;5.50;;;;;;;;;;106561;1280;25240;-79
2023/04/21 14:29:25;;;;;;;9.30;4.60;;;;;;;;;;106629;1280;25410;-81